Time;durP1;ratioP1;P1;durP2;ratioP2;P2;SDS_P1;SDS_P2;PMS_P1;PMS_P2;Temp;Humidity;BMP_temperature;BMP_pressure;BME280_temperature;BME280_humidity;BME280_pressure;Samples;Min_cycle;Max_cycle;Signal;HPM_P1;HPM_P2
2021/06/27 00:00:30;;;;;;;9.05;6.90;;;;;;;;;;5050225;28;20286;-66
2021/06/27 00:02:59;;;;;;;13.45;7.63;;;;;;;;;;5052175;28;20115;-66
2021/06/27 00:05:29;;;;;;;11.35;7.90;;;;;;;;;;5050946;28;20057;-66
2021/06/27 00:07:59;;;;;;;10.68;7.80;;;;;;;;;;5049258;28;20049;-65
2021/06/27 00:10:31;;;;;;;16.73;8.77;;;;;;;;;;5050020;28;20057;-66
2021/06/27 00:13:00;;;;;;;11.63;7.65;;;;;;;;;;5050272;28;20453;-66
2021/06/27 00:15:35;;;;;;;11.68;7.68;;;;;;;;;;5050964;28;20049;-66
2021/06/27 00:18:04;;;;;;;12.02;7.47;;;;;;;;;;5049404;28;20053;-66
2021/06/27 00:20:33;;;;;;;9.98;7.63;;;;;;;;;;5048682;28;20702;-66
2021/06/27 00:23:02;;;;;;;11.30;7.30;;;;;;;;;;5054275;28;20055;-66
2021/06/27 00:25:31;;;;;;;11.63;7.38;;;;;;;;;;5050576;28;20475;-66
2021/06/27 00:28:00;;;;;;;9.60;6.88;;;;;;;;;;5047641;28;20067;-66
2021/06/27 00:30:29;;;;;;;10.85;7.32;;;;;;;;;;5061666;28;20127;-66
2021/06/27 00:32:59;;;;;;;11.88;7.22;;;;;;;;;;5049913;28;20691;-66
2021/06/27 00:35:28;;;;;;;13.25;7.82;;;;;;;;;;5049045;28;20132;-66
2021/06/27 00:37:56;;;;;;;10.55;6.90;;;;;;;;;;5043977;28;20480;-66
2021/06/27 00:40:26;;;;;;;12.18;8.10;;;;;;;;;;5049112;28;20049;-66
2021/06/27 00:42:55;;;;;;;11.30;7.45;;;;;;;;;;5048322;28;20127;-66
2021/06/27 00:45:24;;;;;;;13.07;7.72;;;;;;;;;;5049255;28;20044;-66
2021/06/27 00:47:53;;;;;;;11.75;7.45;;;;;;;;;;5047047;28;20599;-66
2021/06/27 00:50:24;;;;;;;10.38;7.20;;;;;;;;;;5048470;28;20091;-66
2021/06/27 00:52:52;;;;;;;10.82;7.13;;;;;;;;;;5049213;28;20140;-66
2021/06/27 00:55:21;;;;;;;10.40;7.55;;;;;;;;;;5049881;28;20132;-66
2021/06/27 00:57:50;;;;;;;12.27;7.28;;;;;;;;;;5048457;28;20083;-66
2021/06/27 01:00:20;;;;;;;11.27;7.75;;;;;;;;;;5049345;28;20131;-66
2021/06/27 01:05:19;;;;;;;11.50;7.78;;;;;;;;;;5057147;22;20077;-92
2021/06/27 01:07:50;;;;;;;8.80;6.97;;;;;;;;;;5051909;28;20190;-91
2021/06/27 01:10:18;;;;;;;10.27;7.63;;;;;;;;;;5053256;28;20458;-92
2021/06/27 01:15:35;;;;;;;9.77;7.25;;;;;;;;;;5048595;28;20459;-92
2021/06/27 01:18:10;;;;;;;10.80;7.30;;;;;;;;;;5014891;28;20098;-92
2021/06/27 01:20:58;;;;;;;10.20;6.53;;;;;;;;;;5045158;28;20134;-92
2021/06/27 01:23:33;;;;;;;9.80;7.15;;;;;;;;;;5053476;28;20049;-91
2021/06/27 01:26:02;;;;;;;12.40;7.00;;;;;;;;;;5052734;28;20135;-91
2021/06/27 01:28:33;;;;;;;8.98;6.68;;;;;;;;;;5054823;28;20040;-92
2021/06/27 01:31:02;;;;;;;10.70;6.97;;;;;;;;;;5054301;28;20118;-91
2021/06/27 01:33:34;;;;;;;11.27;7.55;;;;;;;;;;5053550;28;20526;-91
2021/06/27 01:36:06;;;;;;;10.13;7.43;;;;;;;;;;5052371;28;20052;-91
2021/06/27 01:38:37;;;;;;;11.35;7.18;;;;;;;;;;5053862;28;20419;-91
2021/06/27 01:41:08;;;;;;;9.55;6.60;;;;;;;;;;5054763;28;20061;-92
2021/06/27 01:43:42;;;;;;;14.23;7.18;;;;;;;;;;5053363;28;20477;-92
2021/06/27 01:46:12;;;;;;;10.82;7.25;;;;;;;;;;5050277;28;20056;-92
2021/06/27 01:48:43;;;;;;;8.52;6.60;;;;;;;;;;5052790;28;20496;-91
2021/06/27 01:51:12;;;;;;;9.50;6.88;;;;;;;;;;5052291;28;20091;-91
2021/06/27 01:53:42;;;;;;;11.70;6.80;;;;;;;;;;5056090;28;20155;-91
2021/06/27 01:56:11;;;;;;;10.45;7.68;;;;;;;;;;5042366;28;20049;-91
2021/06/27 01:58:42;;;;;;;11.45;6.93;;;;;;;;;;5008408;28;20140;-91
2021/06/27 02:01:25;;;;;;;9.27;7.20;;;;;;;;;;4996243;28;20108;-91
2021/06/27 02:03:59;;;;;;;;;;;;;;;;;;4995391;28;20475;-92
2021/06/27 02:06:46;;;;;;;10.35;6.80;;;;;;;;;;5015298;28;19922;-92
2021/06/27 02:09:17;;;;;;;10.32;7.22;;;;;;;;;;5014514;28;20077;-92
2021/06/27 02:11:46;;;;;;;11.23;6.78;;;;;;;;;;5013460;28;20138;-92
2021/06/27 02:14:15;;;;;;;8.85;6.78;;;;;;;;;;4997890;28;20117;-92
2021/06/27 02:16:44;;;;;;;9.23;6.85;;;;;;;;;;5012706;28;20084;-91
2021/06/27 02:19:22;;;;;;;8.68;6.60;;;;;;;;;;5012007;28;20125;-92
2021/06/27 02:21:52;;;;;;;9.05;6.85;;;;;;;;;;4983437;28;20143;-91
2021/06/27 02:24:25;;;;;;;9.20;6.20;;;;;;;;;;5055833;28;20056;-91
2021/06/27 02:29:54;;;;;;;7.78;6.25;;;;;;;;;;5054626;28;20056;-92
2021/06/27 02:35:12;;;;;;;9.38;5.97;;;;;;;;;;5064653;28;20048;-92
2021/06/27 02:37:43;;;;;;;8.57;6.53;;;;;;;;;;5059206;28;20076;-92
2021/06/27 02:40:14;;;;;;;10.45;5.97;;;;;;;;;;5036701;28;20053;-92
2021/06/27 02:42:44;;;;;;;12.52;5.95;;;;;;;;;;5058504;28;20067;-91
2021/06/27 02:45:21;;;;;;;11.10;6.57;;;;;;;;;;5058606;28;20049;-92
2021/06/27 02:47:50;;;;;;;9.80;6.25;;;;;;;;;;5053577;28;20080;-92
2021/06/27 02:50:20;;;;;;;7.60;5.63;;;;;;;;;;5056607;28;20048;-92
2021/06/27 02:53:01;;;;;;;8.35;6.38;;;;;;;;;;5060340;28;20467;-92
2021/06/27 02:55:33;;;;;;;8.13;6.22;;;;;;;;;;5056250;28;20088;-92
2021/06/27 02:58:02;;;;;;;10.05;6.43;;;;;;;;;;5052291;28;20057;-92
2021/06/27 03:00:34;;;;;;;11.13;6.05;;;;;;;;;;5055545;28;20586;-92
2021/06/27 03:03:03;;;;;;;10.45;6.10;;;;;;;;;;5055615;28;20047;-92
2021/06/27 03:05:32;;;;;;;7.82;5.63;;;;;;;;;;5040173;28;20564;-92
2021/06/27 03:08:05;;;;;;;9.70;5.90;;;;;;;;;;5043114;28;20041;-92
2021/06/27 03:10:37;;;;;;;9.02;6.10;;;;;;;;;;5050516;28;20048;-92
2021/06/27 03:13:07;;;;;;;6.82;5.53;;;;;;;;;;5063611;28;20053;-92
2021/06/27 03:15:36;;;;;;;12.10;5.95;;;;;;;;;;5056605;28;20127;-92
2021/06/27 03:18:05;;;;;;;7.65;5.70;;;;;;;;;;5055285;28;20053;-92
2021/06/27 03:20:34;;;;;;;9.02;6.03;;;;;;;;;;5057237;28;20116;-92
2021/06/27 03:23:08;;;;;;;11.60;5.97;;;;;;;;;;5055328;28;20057;-92
2021/06/27 03:25:41;;;;;;;9.63;6.07;;;;;;;;;;5055534;28;20477;-93
2021/06/27 03:28:12;;;;;;;8.13;5.45;;;;;;;;;;5055093;28;20064;-93
2021/06/27 03:30:44;;;;;;;7.13;5.50;;;;;;;;;;5036454;28;20467;-92
2021/06/27 03:33:13;;;;;;;6.82;5.28;;;;;;;;;;5055522;28;20068;-93
2021/06/27 03:35:43;;;;;;;9.50;5.93;;;;;;;;;;5055673;28;20469;-93
2021/06/27 03:38:17;;;;;;;9.18;5.85;;;;;;;;;;5056336;28;20140;-93
2021/06/27 03:41:19;;;;;;;8.40;5.63;;;;;;;;;;5044086;28;20132;-94
2021/06/27 03:43:57;;;;;;;9.38;5.40;;;;;;;;;;5054154;28;20159;-93
2021/06/27 03:46:27;;;;;;;12.77;5.95;;;;;;;;;;5055521;28;20040;-93
2021/06/27 03:48:58;;;;;;;9.38;5.22;;;;;;;;;;5039102;28;20061;-94
2021/06/27 03:51:29;;;;;;;8.57;5.88;;;;;;;;;;5058489;28;20492;-93
2021/06/27 03:53:59;;;;;;;6.95;5.25;;;;;;;;;;5058220;28;20044;-94
2021/06/27 03:56:32;;;;;;;11.68;5.55;;;;;;;;;;5057331;28;20073;-94
2021/06/27 03:59:08;;;;;;;10.85;5.25;;;;;;;;;;5056459;28;20480;-93
2021/06/27 04:01:42;;;;;;;7.80;5.22;;;;;;;;;;5058833;28;20053;-93
2021/06/27 04:04:12;;;;;;;7.53;4.97;;;;;;;;;;5057615;28;20056;-93
2021/06/27 04:06:44;;;;;;;8.35;5.07;;;;;;;;;;5058392;28;20041;-94
2021/06/27 04:09:13;;;;;;;9.57;5.32;;;;;;;;;;5039904;28;20139;-93
2021/06/27 04:11:45;;;;;;;7.03;4.65;;;;;;;;;;5036475;28;20049;-91
2021/06/27 04:14:17;;;;;;;5.35;4.30;;;;;;;;;;5052083;28;20059;-90
2021/06/27 04:16:47;;;;;;;5.15;4.47;;;;;;;;;;5052616;28;20132;-90
2021/06/27 04:19:16;;;;;;;6.60;5.00;;;;;;;;;;5035688;28;20056;-90
2021/06/27 04:21:46;;;;;;;7.90;4.72;;;;;;;;;;5051550;28;20163;-90
2021/06/27 04:24:29;;;;;;;7.93;5.07;;;;;;;;;;5038167;28;20523;-91
2021/06/27 04:27:01;;;;;;;5.45;4.53;;;;;;;;;;5034001;28;20049;-90
2021/06/27 04:29:49;;;;;;;5.32;4.50;;;;;;;;;;5051571;28;20486;-91
2021/06/27 04:32:32;;;;;;;6.65;4.07;;;;;;;;;;5034416;28;20047;-90
2021/06/27 04:35:02;;;;;;;5.78;4.28;;;;;;;;;;5042324;28;20056;-90
2021/06/27 04:37:37;;;;;;;6.35;4.13;;;;;;;;;;5048461;28;20136;-90
2021/06/27 04:40:08;;;;;;;8.32;4.28;;;;;;;;;;5049356;28;20128;-90
2021/06/27 04:42:38;;;;;;;6.80;3.70;;;;;;;;;;5028585;28;20104;-90
2021/06/27 04:45:14;;;;;;;8.65;4.50;;;;;;;;;;5050598;28;20217;-90
2021/06/27 04:47:44;;;;;;;4.60;3.78;;;;;;;;;;5049673;28;20045;-90
2021/06/27 04:50:26;;;;;;;5.00;3.88;;;;;;;;;;5043842;28;20056;-91
2021/06/27 04:52:58;;;;;;;6.72;4.05;;;;;;;;;;5047669;28;20063;-90
2021/06/27 04:55:45;;;;;;;5.68;3.78;;;;;;;;;;5050290;28;20544;-90
2021/06/27 04:58:14;;;;;;;4.82;3.70;;;;;;;;;;4968909;28;20109;-90
2021/06/27 05:00:47;;;;;;;9.30;3.97;;;;;;;;;;4972143;28;20050;-90
2021/06/27 05:03:20;;;;;;;4.40;3.45;;;;;;;;;;4994507;28;20057;-90
2021/06/27 05:05:49;;;;;;;5.93;3.67;;;;;;;;;;4988992;28;20046;-90
2021/06/27 05:08:18;;;;;;;6.40;3.72;;;;;;;;;;4987714;28;20054;-90
2021/06/27 05:13:58;;;;;;;6.78;3.85;;;;;;;;;;4983942;28;20156;-89
2021/06/27 05:17:00;;;;;;;5.10;3.75;;;;;;;;;;4989096;28;20569;-90
2021/06/27 05:19:29;;;;;;;5.60;3.50;;;;;;;;;;4989170;28;20870;-89
2021/06/27 05:22:13;;;;;;;5.00;3.72;;;;;;;;;;4987251;28;20053;-89
2021/06/27 05:24:42;;;;;;;5.63;3.78;;;;;;;;;;5049533;28;20049;-90
2021/06/27 05:27:12;;;;;;;6.20;4.03;;;;;;;;;;5051589;28;20096;-89
2021/06/27 05:29:40;;;;;;;7.20;3.40;;;;;;;;;;5048738;28;20507;-90
2021/06/27 05:35:07;;;;;;;6.03;3.53;;;;;;;;;;5031926;28;20119;-90
2021/06/27 05:37:36;;;;;;;4.63;3.42;;;;;;;;;;5048614;28;20131;-91
2021/06/27 05:40:05;;;;;;;4.07;3.33;;;;;;;;;;5052866;28;20476;-90
2021/06/27 05:42:37;;;;;;;4.07;2.90;;;;;;;;;;5053682;28;20041;-89
2021/06/27 05:45:07;;;;;;;6.85;3.10;;;;;;;;;;5057340;28;20148;-90
2021/06/27 05:47:37;;;;;;;8.93;3.50;;;;;;;;;;5056542;28;20076;-90
2021/06/27 05:50:06;;;;;;;3.67;3.28;;;;;;;;;;5057228;28;20045;-89
2021/06/27 05:52:36;;;;;;;6.57;3.45;;;;;;;;;;5041018;28;20113;-90
2021/06/27 05:55:20;;;;;;;;;;;;;;;;;;5045026;28;20048;-89
2021/06/27 05:57:48;;;;;;;4.18;2.92;;;;;;;;;;5050733;28;20787;-89
2021/06/27 06:00:17;;;;;;;6.15;3.20;;;;;;;;;;5051592;28;20053;-89
2021/06/27 06:02:47;;;;;;;4.55;3.20;;;;;;;;;;5052140;28;20051;-89
2021/06/27 06:05:15;;;;;;;3.38;2.70;;;;;;;;;;5050953;28;20061;-89
2021/06/27 06:07:44;;;;;;;4.43;3.28;;;;;;;;;;5050773;28;20100;-88
2021/06/27 06:10:12;;;;;;;5.72;3.33;;;;;;;;;;5051960;28;20147;-90
2021/06/27 06:12:40;;;;;;;5.50;2.90;;;;;;;;;;5052203;28;20049;-89
2021/06/27 06:15:10;;;;;;;3.40;2.83;;;;;;;;;;5054613;28;20111;-89
2021/06/27 06:17:38;;;;;;;3.70;2.92;;;;;;;;;;5051364;28;20572;-89
2021/06/27 06:20:09;;;;;;;3.80;3.15;;;;;;;;;;5052665;28;20152;-90
2021/06/27 06:22:39;;;;;;;3.13;2.30;;;;;;;;;;5052013;28;20045;-89
2021/06/27 06:25:08;;;;;;;4.15;2.60;;;;;;;;;;5054919;28;20449;-91
2021/06/27 06:27:37;;;;;;;5.82;2.60;;;;;;;;;;5051287;28;20051;-92
2021/06/27 06:30:05;;;;;;;3.50;2.60;;;;;;;;;;5054525;28;20056;-90
2021/06/27 06:32:48;;;;;;;2.33;1.98;;;;;;;;;;5052283;28;20102;-89
2021/06/27 06:35:17;;;;;;;5.30;2.35;;;;;;;;;;5051726;28;20127;-89
2021/06/27 06:37:47;;;;;;;3.10;1.90;;;;;;;;;;5050609;28;20465;-88
2021/06/27 06:40:15;;;;;;;3.38;1.70;;;;;;;;;;5051010;28;20150;-90
2021/06/27 06:42:44;;;;;;;2.63;1.35;;;;;;;;;;5053309;28;20075;-89
2021/06/27 06:45:12;;;;;;;2.13;1.48;;;;;;;;;;5052347;28;20080;-89
2021/06/27 06:47:41;;;;;;;1.77;1.40;;;;;;;;;;5042872;28;20047;-91
2021/06/27 06:50:09;;;;;;;3.75;1.80;;;;;;;;;;5050694;28;20068;-89
2021/06/27 06:52:53;;;;;;;4.75;1.77;;;;;;;;;;5054809;28;20451;-93
2021/06/27 06:55:23;;;;;;;2.20;1.70;;;;;;;;;;5053489;28;20126;-92
2021/06/27 06:57:51;;;;;;;2.90;1.70;;;;;;;;;;5057659;28;20108;-89
2021/06/27 07:00:20;;;;;;;2.75;1.80;;;;;;;;;;5049603;28;20044;-91
2021/06/27 07:02:49;;;;;;;3.95;1.60;;;;;;;;;;5051393;28;20157;-92
2021/06/27 07:05:17;;;;;;;2.35;1.60;;;;;;;;;;5060037;28;20048;-92
2021/06/27 07:07:46;;;;;;;2.25;1.55;;;;;;;;;;5051618;28;20049;-88
2021/06/27 07:10:15;;;;;;;1.98;1.75;;;;;;;;;;5055562;28;20377;-91
2021/06/27 07:12:46;;;;;;;2.65;1.52;;;;;;;;;;5056765;28;20392;-91
2021/06/27 07:15:28;;;;;;;4.30;1.50;;;;;;;;;;5054212;28;20041;-89
2021/06/27 07:17:57;;;;;;;2.97;1.40;;;;;;;;;;5028221;28;20048;-90
2021/06/27 07:20:26;;;;;;;3.00;1.63;;;;;;;;;;5050445;28;20291;-91
2021/06/27 07:22:54;;;;;;;4.03;1.42;;;;;;;;;;5049913;28;20106;-91
2021/06/27 07:25:32;;;;;;;2.72;1.27;;;;;;;;;;5055038;28;20508;-92
2021/06/27 07:28:13;;;;;;;3.90;1.42;;;;;;;;;;5053600;28;20041;-93
2021/06/27 07:30:42;;;;;;;1.45;1.20;;;;;;;;;;5054905;28;20068;-91
2021/06/27 07:33:14;;;;;;;3.05;1.20;;;;;;;;;;5053819;28;20056;-91
2021/06/27 07:35:55;;;;;;;2.25;1.27;;;;;;;;;;5034903;28;20057;-90
2021/06/27 07:41:06;;;;;;;1.90;0.90;;;;;;;;;;5051254;28;20148;-90
2021/06/27 07:43:43;;;;;;;2.85;1.20;;;;;;;;;;5049332;28;20056;-91
2021/06/27 07:46:12;;;;;;;2.35;1.27;;;;;;;;;;5050424;28;20053;-90
2021/06/27 07:48:43;;;;;;;3.22;1.30;;;;;;;;;;5035111;28;20122;-90
2021/06/27 07:51:15;;;;;;;1.65;1.35;;;;;;;;;;5044890;28;20084;-92
2021/06/27 07:53:44;;;;;;;1.50;1.30;;;;;;;;;;5032545;28;20080;-90
2021/06/27 07:56:12;;;;;;;3.22;1.50;;;;;;;;;;5032758;28;20129;-94
2021/06/27 07:58:58;;;;;;;3.25;1.40;;;;;;;;;;5034103;28;20485;-90
2021/06/27 08:01:27;;;;;;;4.43;1.48;;;;;;;;;;5029167;28;20057;-91
2021/06/27 08:03:58;;;;;;;3.08;1.35;;;;;;;;;;5050148;28;20486;-87
2021/06/27 08:06:26;;;;;;;2.78;1.33;;;;;;;;;;5053781;28;20655;-93
2021/06/27 08:08:55;;;;;;;1.75;1.50;;;;;;;;;;5052006;28;20058;-90
2021/06/27 08:11:23;;;;;;;2.05;1.42;;;;;;;;;;5063999;28;20135;-91
2021/06/27 08:13:52;;;;;;;2.67;1.58;;;;;;;;;;5073263;28;20446;-90
2021/06/27 08:16:22;;;;;;;2.80;1.90;;;;;;;;;;5067577;28;20120;-91
2021/06/27 08:18:51;;;;;;;1.92;1.10;;;;;;;;;;5055096;28;20041;-92
2021/06/27 08:21:20;;;;;;;1.58;1.40;;;;;;;;;;5051115;28;20041;-91
2021/06/27 08:23:48;;;;;;;1.52;1.00;;;;;;;;;;5053558;28;20085;-92
2021/06/27 08:26:18;;;;;;;4.03;1.50;;;;;;;;;;5040555;28;20512;-91
2021/06/27 08:28:51;;;;;;;3.50;1.25;;;;;;;;;;5058990;28;20095;-93
2021/06/27 08:31:22;;;;;;;1.92;1.23;;;;;;;;;;5053392;28;20048;-93
2021/06/27 08:33:51;;;;;;;1.85;1.17;;;;;;;;;;5053950;28;20045;-93
2021/06/27 08:36:24;;;;;;;1.48;1.13;;;;;;;;;;5048768;28;20369;-93
2021/06/27 08:38:55;;;;;;;3.53;1.48;;;;;;;;;;5050551;28;20115;-92
2021/06/27 08:41:28;;;;;;;2.45;1.25;;;;;;;;;;5051295;28;20408;-93
2021/06/27 08:44:06;;;;;;;1.20;1.00;;;;;;;;;;5056243;28;20067;-93
2021/06/27 08:46:38;;;;;;;3.53;1.17;;;;;;;;;;5052555;28;20311;-92
2021/06/27 08:49:07;;;;;;;1.75;1.05;;;;;;;;;;5051135;28;20147;-90
2021/06/27 08:51:39;;;;;;;2.50;1.63;;;;;;;;;;5049481;28;20108;-88
2021/06/27 08:54:08;;;;;;;3.50;1.17;;;;;;;;;;5044248;28;20168;-90
2021/06/27 08:56:36;;;;;;;3.25;1.30;;;;;;;;;;5041630;28;20060;-89
2021/06/27 08:59:05;;;;;;;1.60;1.42;;;;;;;;;;5040886;28;20056;-90
2021/06/27 09:01:33;;;;;;;2.17;1.15;;;;;;;;;;5045562;28;20095;-91
2021/06/27 09:06:47;;;;;;;1.30;1.00;;;;;;;;;;5041895;28;20045;-89
2021/06/27 09:09:17;;;;;;;2.60;1.20;;;;;;;;;;5039609;28;20420;-90
2021/06/27 09:12:00;;;;;;;2.10;1.40;;;;;;;;;;5040420;28;20111;-89
2021/06/27 09:14:29;;;;;;;2.30;1.48;;;;;;;;;;5043435;28;20599;-90
2021/06/27 09:17:11;;;;;;;1.70;1.30;;;;;;;;;;5043754;28;20451;-90
2021/06/27 09:19:58;;;;;;;1.60;1.33;;;;;;;;;;5042771;28;20469;-91
2021/06/27 09:22:29;;;;;;;3.08;1.42;;;;;;;;;;5034779;28;20156;-89
2021/06/27 09:25:11;;;;;;;1.65;1.50;;;;;;;;;;5048333;28;20053;-90
2021/06/27 09:27:40;;;;;;;1.42;1.23;;;;;;;;;;5048379;28;20144;-91
2021/06/27 09:30:15;;;;;;;2.22;1.35;;;;;;;;;;5048990;28;20055;-87
2021/06/27 09:32:53;;;;;;;2.97;1.42;;;;;;;;;;5052860;28;20091;-89
2021/06/27 09:35:36;;;;;;;2.50;1.60;;;;;;;;;;5049564;28;20495;-90
2021/06/27 09:38:19;;;;;;;3.33;1.42;;;;;;;;;;5050614;28;20069;-89
2021/06/27 09:40:50;;;;;;;2.78;1.50;;;;;;;;;;5048744;28;20041;-88
2021/06/27 09:43:20;;;;;;;3.03;1.70;;;;;;;;;;5052201;28;20053;-90
2021/06/27 09:45:49;;;;;;;1.50;1.40;;;;;;;;;;5047635;28;20481;-89
2021/06/27 09:48:17;;;;;;;1.90;1.63;;;;;;;;;;5050471;28;20118;-89
2021/06/27 09:50:46;;;;;;;1.65;1.55;;;;;;;;;;5049353;28;20057;-89
2021/06/27 09:53:33;;;;;;;2.28;1.70;;;;;;;;;;5049882;28;20080;-91
2021/06/27 09:56:04;;;;;;;2.13;1.73;;;;;;;;;;5050888;28;20045;-89
2021/06/27 09:58:33;;;;;;;1.90;1.70;;;;;;;;;;5050254;28;20041;-89
2021/06/27 10:01:01;;;;;;;3.17;1.70;;;;;;;;;;5050261;28;20183;-88
2021/06/27 10:03:31;;;;;;;1.90;1.70;;;;;;;;;;5049714;28;20072;-89
2021/06/27 10:06:06;;;;;;;2.20;1.60;;;;;;;;;;5050465;28;20044;-88
2021/06/27 10:08:35;;;;;;;1.75;1.65;;;;;;;;;;5051109;28;20454;-90
2021/06/27 10:11:17;;;;;;;3.92;1.80;;;;;;;;;;5050592;28;20144;-89
2021/06/27 10:13:47;;;;;;;2.42;1.80;;;;;;;;;;5051007;28;20106;-92
2021/06/27 10:16:27;;;;;;;2.88;1.63;;;;;;;;;;5056539;28;20082;-91
2021/06/27 10:18:57;;;;;;;2.08;1.73;;;;;;;;;;5053080;28;20052;-90
2021/06/27 10:21:35;;;;;;;1.60;1.50;;;;;;;;;;5059374;28;20083;-91
2021/06/27 10:24:19;;;;;;;2.05;1.70;;;;;;;;;;5038558;28;20515;-87
2021/06/27 10:26:50;;;;;;;4.70;2.35;;;;;;;;;;5053648;28;20045;-89
2021/06/27 10:29:19;;;;;;;4.47;1.55;;;;;;;;;;5054117;28;20142;-89
2021/06/27 10:31:49;;;;;;;3.58;1.80;;;;;;;;;;5056091;28;20375;-89
2021/06/27 10:34:24;;;;;;;1.98;1.70;;;;;;;;;;5055607;28;20049;-92
2021/06/27 10:36:57;;;;;;;2.78;1.92;;;;;;;;;;5053092;28;20504;-88
2021/06/27 10:39:26;;;;;;;2.17;1.67;;;;;;;;;;5053146;28;20093;-88
2021/06/27 10:41:59;;;;;;;2.72;1.40;;;;;;;;;;5053699;28;20101;-88
2021/06/27 10:44:27;;;;;;;2.63;1.42;;;;;;;;;;5047766;28;20084;-87
2021/06/27 10:46:57;;;;;;;4.90;1.73;;;;;;;;;;5053130;28;20048;-87
2021/06/27 10:50:04;;;;;;;2.03;1.70;;;;;;;;;;5054670;28;20056;-88
2021/06/27 10:52:51;;;;;;;1.92;1.58;;;;;;;;;;5052296;28;20064;-88
2021/06/27 10:55:23;;;;;;;5.13;1.80;;;;;;;;;;5055174;28;20048;-89
2021/06/27 10:57:54;;;;;;;2.22;2.00;;;;;;;;;;5051327;28;20156;-87
2021/06/27 11:00:23;;;;;;;5.43;2.28;;;;;;;;;;5052037;28;20064;-89
2021/06/27 11:02:55;;;;;;;2.92;2.10;;;;;;;;;;5048886;28;20052;-87
2021/06/27 11:05:46;;;;;;;1.92;1.73;;;;;;;;;;5053941;28;20056;-89
2021/06/27 11:08:16;;;;;;;2.58;1.90;;;;;;;;;;5055167;28;20049;-88
2021/06/27 11:10:44;;;;;;;3.97;2.15;;;;;;;;;;5052919;28;20045;-88
2021/06/27 11:13:19;;;;;;;2.80;2.35;;;;;;;;;;5052168;28;20068;-89
2021/06/27 11:16:06;;;;;;;2.63;2.20;;;;;;;;;;5052804;28;20139;-87
2021/06/27 11:18:35;;;;;;;2.72;2.20;;;;;;;;;;5051159;28;20134;-90
2021/06/27 11:21:06;;;;;;;2.90;1.92;;;;;;;;;;5051391;28;20128;-87
2021/06/27 11:23:54;;;;;;;2.67;1.88;;;;;;;;;;5051880;28;20098;-89
2021/06/27 11:26:41;;;;;;;2.13;1.90;;;;;;;;;;5042695;28;20044;-89
2021/06/27 11:29:24;;;;;;;2.83;1.70;;;;;;;;;;5069504;28;20075;-87
2021/06/27 11:31:54;;;;;;;2.00;1.70;;;;;;;;;;5051904;28;20098;-87
2021/06/27 11:34:23;;;;;;;2.10;1.90;;;;;;;;;;5051215;28;20503;-88
2021/06/27 11:36:52;;;;;;;2.15;1.90;;;;;;;;;;5051576;28;20379;-88
2021/06/27 11:39:36;;;;;;;3.92;1.98;;;;;;;;;;5053660;28;20045;-87
2021/06/27 11:42:04;;;;;;;2.00;1.80;;;;;;;;;;5052872;28;20107;-90
2021/06/27 11:44:33;;;;;;;3.63;1.75;;;;;;;;;;5052888;28;20116;-87
2021/06/27 11:47:21;;;;;;;2.35;2.15;;;;;;;;;;5051787;28;20076;-88
2021/06/27 11:49:50;;;;;;;2.47;1.98;;;;;;;;;;5052330;28;20102;-92
2021/06/27 11:52:18;;;;;;;3.03;2.30;;;;;;;;;;5050671;28;20072;-88
2021/06/27 11:54:46;;;;;;;3.35;2.03;;;;;;;;;;5045245;28;20088;-89
2021/06/27 11:57:15;;;;;;;2.33;1.92;;;;;;;;;;5041237;28;20480;-90
2021/06/27 11:59:54;;;;;;;3.17;2.03;;;;;;;;;;5052061;28;20044;-89
2021/06/27 12:02:29;;;;;;;4.53;2.00;;;;;;;;;;5050716;28;20045;-90
2021/06/27 12:04:59;;;;;;;2.63;1.65;;;;;;;;;;5052342;28;20045;-87
2021/06/27 12:07:43;;;;;;;1.60;1.50;;;;;;;;;;5052161;28;20045;-88
2021/06/27 12:10:22;;;;;;;2.63;1.83;;;;;;;;;;5051098;28;20045;-88
2021/06/27 12:12:51;;;;;;;1.75;1.60;;;;;;;;;;5051823;28;20101;-88
2021/06/27 12:15:27;;;;;;;2.03;1.80;;;;;;;;;;5051939;28;20076;-88
2021/06/27 12:17:58;;;;;;;4.05;1.92;;;;;;;;;;5051892;28;20059;-89
2021/06/27 12:20:35;;;;;;;3.15;1.95;;;;;;;;;;5053714;28;20049;-89
2021/06/27 12:23:05;;;;;;;2.10;1.65;;;;;;;;;;5052991;28;20041;-89
2021/06/27 12:25:34;;;;;;;4.45;1.70;;;;;;;;;;5051240;28;20087;-88
2021/06/27 12:28:04;;;;;;;1.95;1.75;;;;;;;;;;5050255;28;20104;-88
2021/06/27 12:30:40;;;;;;;3.85;1.92;;;;;;;;;;5047473;28;20076;-88
2021/06/27 12:33:11;;;;;;;3.20;1.73;;;;;;;;;;5047770;28;20060;-88
2021/06/27 12:35:40;;;;;;;1.70;1.55;;;;;;;;;;5049918;28;20139;-89
2021/06/27 12:38:13;;;;;;;1.67;1.58;;;;;;;;;;4979309;28;20105;-89
2021/06/27 12:40:43;;;;;;;2.53;1.85;;;;;;;;;;4989500;28;20415;-89
2021/06/27 12:43:25;;;;;;;2.38;1.90;;;;;;;;;;4990027;28;20201;-87
2021/06/27 12:46:27;;;;;;;1.60;1.50;;;;;;;;;;1993504;28;10023725;-89
2021/06/27 12:49:11;;;;;;;2.03;1.73;;;;;;;;;;4290207;28;10001043;-89
2021/06/27 12:51:41;;;;;;;2.35;1.60;;;;;;;;;;4983594;28;20050;-89
2021/06/27 12:54:11;;;;;;;2.10;1.83;;;;;;;;;;4989161;28;20058;-89
2021/06/27 12:56:57;;;;;;;2.75;1.65;;;;;;;;;;4990102;28;20053;-89
2021/06/27 12:59:27;;;;;;;3.33;1.80;;;;;;;;;;4988476;28;20501;-88
2021/06/27 13:02:03;;;;;;;2.08;1.60;;;;;;;;;;4988858;28;20100;-88
2021/06/27 13:04:33;;;;;;;1.90;1.52;;;;;;;;;;4985007;28;20144;-89
2021/06/27 13:07:03;;;;;;;2.03;1.65;;;;;;;;;;4987885;28;20050;-88
2021/06/27 13:09:32;;;;;;;2.33;1.85;;;;;;;;;;5017263;28;20488;-87
2021/06/27 13:12:10;;;;;;;1.90;1.60;;;;;;;;;;5044063;28;20055;-89
2021/06/27 13:14:39;;;;;;;2.25;1.70;;;;;;;;;;5045266;28;20049;-88
2021/06/27 13:17:08;;;;;;;4.30;1.95;;;;;;;;;;5045672;28;20081;-89
2021/06/27 13:19:39;;;;;;;4.82;1.98;;;;;;;;;;5044901;28;20053;-88
2021/06/27 13:22:11;;;;;;;5.20;2.30;;;;;;;;;;5047764;28;20053;-89
2021/06/27 13:24:57;;;;;;;2.47;2.10;;;;;;;;;;5046267;28;20136;-90
2021/06/27 13:27:25;;;;;;;2.95;2.03;;;;;;;;;;5050085;28;20044;-89
2021/06/27 13:30:06;;;;;;;2.17;1.98;;;;;;;;;;5050788;28;20550;-88
2021/06/27 13:32:34;;;;;;;1.80;1.70;;;;;;;;;;5044092;28;20104;-88
2021/06/27 13:35:04;;;;;;;2.40;1.90;;;;;;;;;;5048870;28;20114;-88
2021/06/27 13:37:52;;;;;;;2.05;1.80;;;;;;;;;;5049693;28;20559;-88
2021/06/27 13:40:21;;;;;;;1.95;1.67;;;;;;;;;;5048866;28;20041;-87
2021/06/27 13:42:49;;;;;;;4.03;2.08;;;;;;;;;;5053866;28;20052;-88
2021/06/27 13:45:20;;;;;;;2.35;2.13;;;;;;;;;;5053384;28;20095;-88
2021/06/27 13:47:53;;;;;;;2.83;1.88;;;;;;;;;;5052878;28;20148;-88
2021/06/27 13:50:24;;;;;;;2.33;2.13;;;;;;;;;;5033021;28;20108;-88
2021/06/27 13:52:52;;;;;;;3.90;2.30;;;;;;;;;;5051017;28;20098;-90
2021/06/27 13:55:22;;;;;;;3.70;2.20;;;;;;;;;;5045431;28;20092;-92
2021/06/27 13:57:51;;;;;;;2.42;2.20;;;;;;;;;;5052947;28;20063;-89
2021/06/27 14:00:20;;;;;;;3.60;2.90;;;;;;;;;;5054727;28;20060;-91
2021/06/27 14:02:51;;;;;;;3.75;2.75;;;;;;;;;;5056246;28;20095;-88
2021/06/27 14:05:19;;;;;;;2.60;2.40;;;;;;;;;;5057087;28;20418;-93
2021/06/27 14:07:56;;;;;;;4.47;3.00;;;;;;;;;;5058340;28;20077;-92
2021/06/27 14:10:26;;;;;;;5.60;2.58;;;;;;;;;;5056617;28;20045;-88
2021/06/27 14:12:54;;;;;;;3.28;2.25;;;;;;;;;;5056953;28;20582;-88
2021/06/27 14:15:23;;;;;;;3.22;2.42;;;;;;;;;;5057409;28;20049;-90
2021/06/27 14:17:54;;;;;;;4.18;2.58;;;;;;;;;;5053741;28;20072;-90
2021/06/27 14:20:23;;;;;;;4.85;2.53;;;;;;;;;;5055774;28;20071;-90
2021/06/27 14:22:51;;;;;;;4.18;2.67;;;;;;;;;;5056779;28;20041;-90
2021/06/27 14:28:11;;;;;;;4.25;2.70;;;;;;;;;;5052998;28;20116;-90
2021/06/27 14:30:39;;;;;;;3.20;2.90;;;;;;;;;;5055362;28;20060;-89
2021/06/27 14:33:09;;;;;;;3.45;2.65;;;;;;;;;;5056746;28;20052;-90
2021/06/27 14:35:38;;;;;;;3.95;2.72;;;;;;;;;;5052526;28;20078;-91
2021/06/27 14:38:10;;;;;;;3.28;2.55;;;;;;;;;;5051551;28;20459;-92
2021/06/27 14:40:53;;;;;;;2.70;2.50;;;;;;;;;;5052372;28;20112;-93
2021/06/27 14:43:22;;;;;;;4.40;2.72;;;;;;;;;;5037350;28;20099;-91
2021/06/27 14:45:51;;;;;;;3.17;2.17;;;;;;;;;;5050320;28;20053;-90
2021/06/27 14:48:33;;;;;;;2.75;2.03;;;;;;;;;;5044644;28;20151;-92
2021/06/27 14:51:05;;;;;;;2.70;2.38;;;;;;;;;;5049493;28;20045;-91
2021/06/27 14:53:40;;;;;;;2.78;2.30;;;;;;;;;;5048008;28;20516;-92
2021/06/27 14:56:10;;;;;;;29.77;3.55;;;;;;;;;;5043135;28;20052;-86
2021/06/27 14:58:41;;;;;;;8.52;2.42;;;;;;;;;;5049901;28;20053;-88
2021/06/27 15:01:09;;;;;;;3.33;2.15;;;;;;;;;;5047104;28;20148;-88
2021/06/27 15:03:39;;;;;;;4.72;2.38;;;;;;;;;;5046704;28;20501;-88
2021/06/27 15:06:09;;;;;;;4.03;2.08;;;;;;;;;;5049339;28;20083;-87
2021/06/27 15:08:37;;;;;;;4.80;2.00;;;;;;;;;;5046992;28;20049;-87
2021/06/27 15:11:06;;;;;;;5.07;2.17;;;;;;;;;;5046851;28;20053;-86
2021/06/27 15:13:37;;;;;;;2.22;2.00;;;;;;;;;;5051075;28;20045;-86
2021/06/27 15:16:06;;;;;;;3.53;1.95;;;;;;;;;;5052302;28;20049;-87
2021/06/27 15:18:37;;;;;;;3.47;1.75;;;;;;;;;;5054680;28;20155;-87
2021/06/27 15:21:05;;;;;;;3.08;2.25;;;;;;;;;;5051895;28;20070;-88
2021/06/27 15:23:34;;;;;;;2.65;1.88;;;;;;;;;;5054193;28;20079;-88
2021/06/27 15:26:02;;;;;;;2.95;2.22;;;;;;;;;;5049220;28;20053;-89
2021/06/27 15:28:31;;;;;;;2.33;1.90;;;;;;;;;;5050129;28;20041;-86
2021/06/27 15:31:01;;;;;;;5.25;2.15;;;;;;;;;;5052873;28;20090;-86
2021/06/27 15:33:30;;;;;;;2.35;2.15;;;;;;;;;;5051551;28;20045;-86
2021/06/27 15:35:58;;;;;;;5.13;2.13;;;;;;;;;;5054175;28;20113;-88